createdAt,value
2022-08-28T00:02:06.203Z,2.40
2022-08-28T00:04:33.573Z,2.40
2022-08-28T00:07:01.702Z,2.30
2022-08-28T00:09:28.964Z,2.30
2022-08-28T00:11:56.708Z,2.50
2022-08-28T00:14:24.102Z,2.50
2022-08-28T00:16:51.383Z,2.28
2022-08-28T00:19:19.148Z,2.15
2022-08-28T00:21:46.526Z,2.60
2022-08-28T00:24:13.944Z,2.42
2022-08-28T00:26:59.704Z,2.58
2022-08-28T00:29:27.095Z,2.13
2022-08-28T00:31:55.360Z,2.40
2022-08-28T00:34:32.998Z,2.28
2022-08-28T00:37:01.162Z,2.38
2022-08-28T00:39:28.501Z,2.20
2022-08-28T00:41:58.049Z,2.10
2022-08-28T00:44:26.170Z,2.05
2022-08-28T00:46:54.646Z,2.10
2022-08-28T00:49:24.461Z,2.30
2022-08-28T00:52:12.490Z,2.30
2022-08-28T00:54:56.898Z,2.28
2022-08-28T00:57:49.249Z,2.25
2022-08-28T01:00:29.576Z,2.20
2022-08-28T01:02:58.185Z,2.33
2022-08-28T01:05:25.912Z,2.08
2022-08-28T01:07:53.162Z,2.22
2022-08-28T01:10:22.619Z,2.30
2022-08-28T01:12:54.431Z,2.30
2022-08-28T01:15:24.463Z,2.55
2022-08-28T01:17:56.420Z,2.40
2022-08-28T01:20:27.520Z,2.60
2022-08-28T01:23:14.069Z,2.47
2022-08-28T01:25:41.394Z,2.45
2022-08-28T01:28:12.252Z,2.50
2022-08-28T01:30:44.907Z,2.72
2022-08-28T01:33:12.322Z,2.55
2022-08-28T01:35:40.853Z,2.47
2022-08-28T01:38:08.138Z,2.35
2022-08-28T01:40:38.408Z,2.50
2022-08-28T01:43:13.839Z,2.13
2022-08-28T01:45:42.380Z,2.80
2022-08-28T01:48:09.899Z,3.05
2022-08-28T01:50:37.531Z,2.92
2022-08-28T01:53:05.579Z,2.80
2022-08-28T01:55:35.207Z,2.72
2022-08-28T01:58:03.291Z,3.35
2022-08-28T02:00:30.577Z,2.95
2022-08-28T02:02:58.431Z,3.60
2022-08-28T02:05:27.328Z,2.97
2022-08-28T02:07:57.136Z,3.33
2022-08-28T02:10:25.786Z,3.50
2022-08-28T02:12:55.405Z,3.50
2022-08-28T02:15:26.979Z,3.60
2022-08-28T02:17:54.335Z,3.50
2022-08-28T02:20:22.386Z,3.25
2022-08-28T02:22:49.622Z,3.25
2022-08-28T02:25:16.934Z,2.97
2022-08-28T02:27:44.259Z,3.30
2022-08-28T02:30:12.703Z,3.38
2022-08-28T02:32:39.973Z,2.97
2022-08-28T02:35:10.958Z,3.45
2022-08-28T02:37:40.039Z,3.30
2022-08-28T02:40:08.321Z,3.50
2022-08-28T02:42:35.592Z,3.40
2022-08-28T02:45:02.934Z,3.30
2022-08-28T02:47:30.199Z,3.20
2022-08-28T02:49:57.470Z,3.30
2022-08-28T02:52:24.707Z,3.33
2022-08-28T02:54:51.938Z,3.25
2022-08-28T02:57:19.188Z,3.67
2022-08-28T02:59:47.776Z,3.13
2022-08-28T03:02:15.071Z,3.63
2022-08-28T03:04:43.039Z,3.60
2022-08-28T03:07:13.513Z,3.40
2022-08-28T03:09:44.179Z,3.30
2022-08-28T03:12:13.193Z,3.78
2022-08-28T03:14:40.535Z,3.45
2022-08-28T03:17:07.759Z,3.67
2022-08-28T03:19:35.072Z,3.25
2022-08-28T03:22:02.296Z,3.53
2022-08-28T03:24:29.628Z,3.30
2022-08-28T03:26:56.888Z,3.00
2022-08-28T03:29:24.112Z,3.53
2022-08-28T03:31:51.351Z,3.83
2022-08-28T03:34:18.606Z,3.50
2022-08-28T03:36:45.830Z,3.35
2022-08-28T03:39:13.827Z,4.03
2022-08-28T03:41:41.072Z,4.18
2022-08-28T03:44:08.375Z,4.15
2022-08-28T03:46:35.641Z,4.22
2022-08-28T03:49:04.048Z,4.28
2022-08-28T03:51:32.689Z,4.20
2022-08-28T03:54:00.130Z,4.50
2022-08-28T03:56:28.226Z,4.30
2022-08-28T03:58:57.429Z,4.45
2022-08-28T04:01:24.899Z,4.63
2022-08-28T04:03:52.253Z,4.82
2022-08-28T04:06:19.794Z,6.13
2022-08-28T04:08:47.782Z,6.05
2022-08-28T04:11:15.119Z,6.05
2022-08-28T04:13:42.411Z,7.00
2022-08-28T04:16:11.541Z,6.78
2022-08-28T04:18:40.386Z,6.70
2022-08-28T04:21:18.396Z,7.03
2022-08-28T04:23:49.720Z,6.43
2022-08-28T04:26:19.073Z,7.20
2022-08-28T04:28:46.708Z,6.28
2022-08-28T04:31:14.885Z,6.55
2022-08-28T04:33:42.210Z,6.47
2022-08-28T04:36:16.679Z,6.30
2022-08-28T04:38:44.290Z,5.90
2022-08-28T04:41:13.338Z,5.97
2022-08-28T04:43:40.583Z,6.70
2022-08-28T04:46:10.047Z,6.22
2022-08-28T04:48:37.915Z,5.60
2022-08-28T04:51:06.097Z,5.47
2022-08-28T04:53:33.326Z,6.03
2022-08-28T04:56:02.434Z,5.72
2022-08-28T04:58:30.491Z,5.65
2022-08-28T05:00:57.852Z,5.88
2022-08-28T05:03:25.164Z,5.28
2022-08-28T05:05:53.400Z,5.10
2022-08-28T05:08:22.914Z,5.55
2022-08-28T05:10:50.805Z,5.32
2022-08-28T05:13:20.998Z,4.97
2022-08-28T05:15:49.623Z,5.20
2022-08-28T05:18:17.957Z,5.40
2022-08-28T05:20:46.347Z,5.43
2022-08-28T05:23:14.440Z,5.30
2022-08-28T05:25:47.587Z,5.13
2022-08-28T05:28:16.776Z,5.80
2022-08-28T05:30:44.239Z,4.68
2022-08-28T05:33:13.157Z,4.60
2022-08-28T05:35:42.294Z,4.65
2022-08-28T05:38:10.168Z,4.60
2022-08-28T05:40:42.807Z,4.80
2022-08-28T05:43:11.084Z,4.50
2022-08-28T05:45:38.337Z,4.57
2022-08-28T05:48:05.700Z,5.20
2022-08-28T05:50:33.523Z,5.15
2022-08-28T05:53:01.401Z,4.07
2022-08-28T05:55:28.823Z,3.80
2022-08-28T05:58:16.008Z,4.63
2022-08-28T06:00:43.240Z,4.80
2022-08-28T06:03:10.459Z,4.97
2022-08-28T06:05:38.482Z,4.53
2022-08-28T06:08:05.762Z,4.55
2022-08-28T06:10:33.094Z,4.72
2022-08-28T06:13:02.392Z,4.88
2022-08-28T06:15:30.173Z,4.57
2022-08-28T06:17:57.391Z,4.47
2022-08-28T06:20:25.819Z,5.20
2022-08-28T06:22:53.039Z,4.50
2022-08-28T06:25:20.316Z,4.20
2022-08-28T06:27:47.534Z,4.70
2022-08-28T06:30:14.789Z,5.30
2022-08-28T06:32:42.106Z,6.10
2022-08-28T06:35:09.432Z,5.78
2022-08-28T06:37:37.835Z,5.90
2022-08-28T06:40:05.658Z,5.35
2022-08-28T06:42:33.334Z,5.40
2022-08-28T06:45:00.550Z,5.53
2022-08-28T06:47:27.774Z,5.20
2022-08-28T06:49:55.017Z,6.00
2022-08-28T06:52:22.260Z,5.20
2022-08-28T06:54:55.890Z,5.80
2022-08-28T06:57:23.800Z,7.60
2022-08-28T06:59:51.040Z,7.20
2022-08-28T07:02:18.824Z,8.55
2022-08-28T07:04:50.415Z,9.35
2022-08-28T07:07:31.356Z,9.88
2022-08-28T07:09:59.195Z,10.13
2022-08-28T07:12:26.421Z,13.05
2022-08-28T07:14:53.639Z,12.10
2022-08-28T07:17:21.128Z,12.18
2022-08-28T07:19:48.427Z,11.90
2022-08-28T07:22:15.695Z,13.55
2022-08-28T07:24:42.915Z,14.73
2022-08-28T07:27:10.248Z,16.95
2022-08-28T07:29:42.991Z,15.32
2022-08-28T07:32:10.239Z,15.52
2022-08-28T07:34:38.961Z,17.58
2022-08-28T07:37:11.078Z,17.35
2022-08-28T07:39:40.592Z,19.27
2022-08-28T07:42:07.910Z,20.63
2022-08-28T07:44:50.299Z,21.38
2022-08-28T07:47:18.012Z,19.08
2022-08-28T07:49:45.283Z,21.83
2022-08-28T07:52:12.603Z,24.58
2022-08-28T07:54:40.498Z,22.73
2022-08-28T07:57:09.537Z,16.98
2022-08-28T07:59:37.722Z,11.98
2022-08-28T08:02:06.398Z,10.02
2022-08-28T08:04:33.628Z,8.80
2022-08-28T08:07:01.610Z,8.30
2022-08-28T08:09:28.870Z,8.27
2022-08-28T08:11:56.591Z,7.85
2022-08-28T08:14:24.912Z,8.27
2022-08-28T08:16:53.388Z,7.57
2022-08-28T08:19:20.744Z,8.18
2022-08-28T08:21:53.091Z,7.97
2022-08-28T08:24:21.035Z,7.45
2022-08-28T08:26:58.897Z,7.75
2022-08-28T08:29:29.279Z,7.22
2022-08-28T08:31:57.919Z,8.00
2022-08-28T08:34:25.799Z,8.00
2022-08-28T08:36:53.135Z,7.40
2022-08-28T08:39:20.623Z,8.05
2022-08-28T08:41:51.235Z,8.93
2022-08-28T08:44:34.412Z,8.18
2022-08-28T08:47:14.207Z,9.45
2022-08-28T08:49:54.743Z,9.15
2022-08-28T08:52:38.065Z,9.57
2022-08-28T08:55:15.105Z,9.40
2022-08-28T08:57:42.503Z,10.38
2022-08-28T09:00:19.356Z,9.63
2022-08-28T09:03:09.538Z,9.70
2022-08-28T09:05:41.572Z,9.02
2022-08-28T09:08:15.813Z,9.25
2022-08-28T09:10:47.718Z,9.25
2022-08-28T09:13:26.670Z,9.65
2022-08-28T09:15:53.977Z,9.98
2022-08-28T09:18:28.887Z,11.68
2022-08-28T09:23:25.962Z,11.65
2022-08-28T09:26:05.893Z,12.10
2022-08-28T09:28:39.754Z,11.43
2022-08-28T09:31:09.080Z,11.82
2022-08-28T09:33:37.933Z,14.43
2022-08-28T09:36:33.362Z,13.52
2022-08-28T09:39:25.842Z,14.77
2022-08-28T09:42:33.078Z,12.52
2022-08-28T09:45:21.065Z,14.02
2022-08-28T09:47:52.151Z,14.20
2022-08-28T09:50:28.375Z,14.90
2022-08-28T09:52:58.027Z,15.57
2022-08-28T09:55:32.924Z,16.25
2022-08-28T09:58:00.884Z,17.08
2022-08-28T10:00:34.216Z,17.25
2022-08-28T10:03:16.360Z,17.23
2022-08-28T10:06:31.980Z,21.23
2022-08-28T10:09:21.207Z,19.95
2022-08-28T10:12:17.379Z,21.38
2022-08-28T10:14:48.835Z,22.65
2022-08-28T10:17:25.072Z,24.75
2022-08-28T10:20:04.584Z,24.60
2022-08-28T10:22:38.764Z,24.77
2022-08-28T10:25:09.351Z,23.25
2022-08-28T10:27:51.818Z,25.17
2022-08-28T10:30:24.075Z,23.10
2022-08-28T10:33:18.694Z,25.20
2022-08-28T10:36:00.909Z,25.25
2022-08-28T10:38:42.857Z,23.58
2022-08-28T10:41:29.485Z,24.55
2022-08-28T10:43:57.239Z,27.08
2022-08-28T10:46:28.016Z,26.02
2022-08-28T10:49:08.271Z,27.58
2022-08-28T10:51:45.855Z,25.63
2022-08-28T10:54:29.827Z,25.88
2022-08-28T10:57:08.437Z,23.38
2022-08-28T10:59:41.818Z,27.10
2022-08-28T11:02:10.433Z,25.77
2022-08-28T11:04:38.877Z,27.27
2022-08-28T11:07:07.864Z,26.60
2022-08-28T11:09:47.703Z,25.55
2022-08-28T11:12:19.579Z,23.08
2022-08-28T11:14:48.884Z,22.85
2022-08-28T11:17:22.590Z,25.25
2022-08-28T11:20:25.737Z,24.80
2022-08-28T11:22:59.634Z,23.42
2022-08-28T11:25:41.458Z,25.85
2022-08-28T11:28:24.617Z,26.10
2022-08-28T11:31:01.180Z,24.90
2022-08-28T11:33:34.599Z,25.90
2022-08-28T11:36:02.188Z,24.38
2022-08-28T11:38:41.794Z,27.67
2022-08-28T11:41:17.574Z,26.52
2022-08-28T11:43:45.660Z,27.02
2022-08-28T11:46:32.834Z,27.98
2022-08-28T11:49:05.167Z,25.33
2022-08-28T11:51:39.811Z,29.02
2022-08-28T11:54:23.581Z,27.35
2022-08-28T11:57:07.932Z,28.55
2022-08-28T12:00:05.700Z,25.67
2022-08-28T12:02:43.750Z,25.75
2022-08-28T12:05:17.062Z,26.23
2022-08-28T12:07:48.610Z,27.50
2022-08-28T12:10:27.670Z,25.55
2022-08-28T12:12:56.919Z,24.98
2022-08-28T12:15:27.237Z,24.98
2022-08-28T12:18:10.256Z,24.02
2022-08-28T12:20:53.608Z,24.08
2022-08-28T12:23:23.895Z,24.60
2022-08-28T12:26:03.536Z,22.20
2022-08-28T12:28:45.272Z,20.75
2022-08-28T12:31:21.523Z,21.75
2022-08-28T12:33:57.981Z,21.98
2022-08-28T12:36:26.765Z,19.95
2022-08-28T12:38:54.858Z,20.85
2022-08-28T12:41:22.419Z,21.02
2022-08-28T12:43:50.549Z,17.58
2022-08-28T12:46:29.561Z,18.42
2022-08-28T12:49:01.401Z,20.00
2022-08-28T12:51:33.727Z,19.88
2022-08-28T12:54:06.289Z,21.13
2022-08-28T12:56:36.136Z,22.25
2022-08-28T12:59:27.461Z,19.27
2022-08-28T13:02:00.338Z,21.48
2022-08-28T13:04:36.828Z,19.30
2022-08-28T13:07:12.468Z,18.52
2022-08-28T13:09:48.570Z,19.08
2022-08-28T13:12:23.996Z,17.38
2022-08-28T13:15:11.392Z,19.08
2022-08-28T13:17:49.930Z,19.88
2022-08-28T13:20:36.380Z,19.98
2022-08-28T13:23:03.879Z,19.40
2022-08-28T13:25:33.208Z,19.65
2022-08-28T13:28:14.452Z,19.83
2022-08-28T13:30:41.754Z,20.88
2022-08-28T13:33:23.548Z,19.70
2022-08-28T13:35:51.329Z,20.05
2022-08-28T13:38:20.048Z,18.50
2022-08-28T13:40:58.705Z,19.67
2022-08-28T13:43:27.830Z,20.42
2022-08-28T13:45:55.103Z,18.83
2022-08-28T13:48:24.576Z,18.10
2022-08-28T13:51:01.111Z,19.63
2022-08-28T13:53:30.865Z,17.65
2022-08-28T13:56:00.488Z,17.80
2022-08-28T13:58:28.182Z,16.63
2022-08-28T14:00:55.586Z,16.98
2022-08-28T14:03:38.796Z,16.55
2022-08-28T14:06:11.693Z,15.38
2022-08-28T14:08:40.076Z,16.17
2022-08-28T14:11:08.055Z,15.98
2022-08-28T14:13:40.285Z,14.65
2022-08-28T14:16:16.688Z,14.93
2022-08-28T14:18:44.093Z,14.63
2022-08-28T14:21:11.315Z,16.15
2022-08-28T14:23:38.543Z,13.88
2022-08-28T14:26:06.021Z,15.73
2022-08-28T14:28:33.243Z,16.75
2022-08-28T14:31:00.481Z,16.27
2022-08-28T14:33:27.852Z,14.75
2022-08-28T14:35:55.089Z,13.88
2022-08-28T14:38:22.304Z,16.15
2022-08-28T14:40:49.550Z,15.98
2022-08-28T14:43:16.787Z,15.48
2022-08-28T14:45:44.723Z,16.30
2022-08-28T14:48:12.085Z,15.32
2022-08-28T14:50:43.902Z,15.20
2022-08-28T14:53:11.569Z,15.32
2022-08-28T14:55:43.862Z,17.15
2022-08-28T14:58:11.208Z,15.05
2022-08-28T15:00:42.654Z,14.68
2022-08-28T15:03:10.084Z,16.13
2022-08-28T15:05:37.327Z,15.30
2022-08-28T15:08:13.338Z,14.65
2022-08-28T15:10:41.095Z,15.90
2022-08-28T15:13:10.191Z,13.35
2022-08-28T15:15:39.420Z,15.20
2022-08-28T15:18:10.386Z,14.00
2022-08-28T15:20:44.984Z,11.77
2022-08-28T15:23:13.283Z,11.27
2022-08-28T15:25:40.755Z,12.23
2022-08-28T15:28:08.264Z,12.43
2022-08-28T15:30:35.656Z,13.27
2022-08-28T15:33:03.117Z,14.30
2022-08-28T15:35:30.364Z,14.68
2022-08-28T15:37:57.706Z,13.95
2022-08-28T15:40:43.473Z,13.85
2022-08-28T15:43:10.783Z,15.23
2022-08-28T15:45:39.156Z,14.45
2022-08-28T15:48:07.040Z,14.68
2022-08-28T15:50:34.370Z,15.27
2022-08-28T15:53:02.119Z,14.82
2022-08-28T15:55:30.178Z,15.80
2022-08-28T15:57:57.420Z,14.35
2022-08-28T16:00:24.646Z,14.80
2022-08-28T16:02:51.872Z,15.93
2022-08-28T16:05:19.166Z,15.25
2022-08-28T16:07:46.549Z,14.43
2022-08-28T16:10:13.963Z,14.48
2022-08-28T16:12:41.421Z,15.63
2022-08-28T16:15:09.479Z,13.52
2022-08-28T16:17:37.056Z,12.30
2022-08-28T16:20:06.557Z,13.00
2022-08-28T16:22:40.736Z,13.95
2022-08-28T16:25:09.664Z,11.75
2022-08-28T16:27:36.907Z,13.70
2022-08-28T16:30:05.738Z,13.07
2022-08-28T16:32:33.179Z,13.25
2022-08-28T16:35:03.902Z,13.23
2022-08-28T16:37:38.315Z,11.68
2022-08-28T16:40:08.911Z,12.98
2022-08-28T16:42:36.262Z,11.48
2022-08-28T16:45:04.416Z,11.05
2022-08-28T16:47:32.224Z,10.98
2022-08-28T16:50:00.437Z,10.48
2022-08-28T16:52:27.683Z,12.02
2022-08-28T16:54:55.167Z,11.43
2022-08-28T16:57:22.612Z,10.77
2022-08-28T16:59:53.607Z,9.57
2022-08-28T17:02:26.339Z,10.18
2022-08-28T17:04:54.851Z,9.90
2022-08-28T17:07:22.084Z,9.35
2022-08-28T17:09:49.311Z,9.38
2022-08-28T17:12:16.739Z,9.15
2022-08-28T17:14:44.820Z,9.43
2022-08-28T17:17:12.085Z,10.13
2022-08-28T17:19:39.652Z,10.07
2022-08-28T17:22:27.482Z,10.00
2022-08-28T17:24:55.055Z,10.20
2022-08-28T17:27:23.399Z,10.48
2022-08-28T17:29:51.022Z,10.05
2022-08-28T17:32:18.496Z,10.50
2022-08-28T17:34:45.943Z,10.93
2022-08-28T17:37:13.235Z,10.93
2022-08-28T17:39:40.479Z,10.63
2022-08-28T17:42:07.762Z,10.98
2022-08-28T17:44:35.365Z,11.90
2022-08-28T17:47:02.698Z,12.07
2022-08-28T17:49:30.103Z,11.18
2022-08-28T17:51:57.346Z,11.75
2022-08-28T17:54:24.710Z,11.50
2022-08-28T17:56:52.488Z,12.13
2022-08-28T17:59:19.871Z,12.45
2022-08-28T18:01:47.238Z,11.93
2022-08-28T18:04:17.879Z,12.55
2022-08-28T18:06:47.522Z,12.90
2022-08-28T18:09:14.853Z,12.93
2022-08-28T18:11:42.353Z,12.23
2022-08-28T18:14:09.602Z,12.23
2022-08-28T18:16:37.132Z,13.20
2022-08-28T18:19:05.678Z,13.30
2022-08-28T18:21:33.087Z,12.98
2022-08-28T18:24:00.357Z,12.60
2022-08-28T18:26:27.583Z,13.32
2022-08-28T18:28:55.136Z,13.38
2022-08-28T18:31:23.118Z,13.88
2022-08-28T18:33:50.525Z,13.30
2022-08-28T18:36:17.794Z,15.02
2022-08-28T18:38:45.128Z,13.07
2022-08-28T18:41:13.084Z,14.00
2022-08-28T18:43:40.340Z,14.23
2022-08-28T18:46:08.885Z,13.68
2022-08-28T18:48:36.592Z,14.05
2022-08-28T18:51:06.707Z,14.95
2022-08-28T18:53:33.975Z,14.38
2022-08-28T18:56:02.664Z,16.08
2022-08-28T18:58:32.274Z,15.13
2022-08-28T19:01:02.109Z,16.25
2022-08-28T19:03:29.723Z,15.75
2022-08-28T19:05:57.190Z,15.70
2022-08-28T19:08:25.245Z,17.20
2022-08-28T19:10:53.055Z,14.43
2022-08-28T19:13:20.574Z,15.73
2022-08-28T19:15:50.535Z,16.20
2022-08-28T19:18:17.935Z,16.65
2022-08-28T19:20:45.571Z,16.20
2022-08-28T19:23:16.887Z,15.63
2022-08-28T19:25:44.938Z,15.45
2022-08-28T19:28:12.258Z,15.48
2022-08-28T19:30:39.566Z,15.15
2022-08-28T19:33:06.793Z,15.77
2022-08-28T19:35:34.026Z,15.82
2022-08-28T19:38:01.420Z,15.27
2022-08-28T19:40:29.022Z,16.00
2022-08-28T19:42:56.414Z,15.68
2022-08-28T19:45:23.675Z,14.82
2022-08-28T19:47:52.154Z,16.05
2022-08-28T19:50:19.654Z,15.88
2022-08-28T19:52:46.987Z,14.80
2022-08-28T19:55:20.622Z,14.00
2022-08-28T19:57:48.520Z,15.98
2022-08-28T20:00:18.145Z,16.15
2022-08-28T20:02:45.661Z,14.75
2022-08-28T20:05:12.992Z,15.00
2022-08-28T20:07:40.404Z,16.08
2022-08-28T20:10:08.035Z,15.15
2022-08-28T20:12:35.682Z,15.25
2022-08-28T20:15:03.863Z,15.80
2022-08-28T20:17:31.415Z,15.35
2022-08-28T20:20:02.398Z,15.80
2022-08-28T20:22:31.819Z,16.27
2022-08-28T20:24:59.632Z,15.30
2022-08-28T20:27:27.505Z,13.73
2022-08-28T20:29:54.708Z,13.32
2022-08-28T20:32:22.008Z,14.18
2022-08-28T20:34:49.241Z,15.32
2022-08-28T20:37:16.795Z,14.02
2022-08-28T20:39:44.063Z,14.88
2022-08-28T20:42:11.766Z,14.82
2022-08-28T20:44:39.055Z,13.93
2022-08-28T20:47:06.525Z,15.02
2022-08-28T20:49:39.251Z,14.93
2022-08-28T20:52:06.950Z,14.77
2022-08-28T20:54:39.339Z,15.15
2022-08-28T20:57:09.495Z,15.20
2022-08-28T20:59:40.004Z,16.67
2022-08-28T21:02:12.732Z,15.57
2022-08-28T21:04:40.440Z,14.88
2022-08-28T21:07:07.863Z,15.70
2022-08-28T21:10:04.491Z,17.10
2022-08-28T21:12:22.555Z,10.55
2022-08-28T21:14:52.750Z,7.65
2022-08-28T21:17:29.170Z,6.90
2022-08-28T21:20:02.927Z,15.10
2022-08-28T21:22:31.697Z,17.02
2022-08-28T21:24:59.033Z,14.45
2022-08-28T21:27:26.762Z,16.67
2022-08-28T21:29:58.210Z,16.30
2022-08-28T21:32:26.219Z,15.88
2022-08-28T21:34:54.443Z,15.88
2022-08-28T21:37:22.072Z,15.88
2022-08-28T21:39:49.382Z,15.35
2022-08-28T21:42:16.667Z,15.50
2022-08-28T21:44:46.112Z,15.85
2022-08-28T21:47:22.859Z,10.07
2022-08-28T21:49:54.534Z,14.77
2022-08-28T21:52:23.430Z,14.75
2022-08-28T21:54:51.603Z,15.00
2022-08-28T21:57:18.898Z,15.18
2022-08-28T21:59:46.122Z,15.05
2022-08-28T22:02:13.401Z,14.63
2022-08-28T22:04:40.682Z,15.20
2022-08-28T22:07:09.786Z,14.52
2022-08-28T22:09:37.008Z,11.02
2022-08-28T22:12:04.360Z,9.50
2022-08-28T22:14:31.573Z,13.70
2022-08-28T22:16:58.844Z,14.23
2022-08-28T22:19:26.117Z,11.68
2022-08-28T22:22:11.770Z,15.13
2022-08-28T22:24:38.996Z,15.73
2022-08-28T22:27:06.339Z,14.07
2022-08-28T22:29:36.516Z,14.70
2022-08-28T22:32:07.578Z,14.68
2022-08-28T22:34:40.423Z,15.00
2022-08-28T22:37:08.261Z,13.50
2022-08-28T22:39:35.482Z,11.38
2022-08-28T22:42:02.716Z,13.18
2022-08-28T22:44:30.027Z,14.48
2022-08-28T22:46:57.303Z,14.43
2022-08-28T22:49:24.588Z,13.40
2022-08-28T22:51:51.824Z,13.65
2022-08-28T22:54:19.114Z,13.90
2022-08-28T22:56:46.365Z,12.38
2022-08-28T22:59:13.670Z,13.30
2022-08-28T23:01:42.428Z,13.30
2022-08-28T23:04:10.479Z,13.02
2022-08-28T23:06:40.885Z,12.35
2022-08-28T23:09:08.252Z,12.52
2022-08-28T23:11:36.330Z,12.43
2022-08-28T23:14:04.719Z,13.27
2022-08-28T23:16:32.904Z,12.00
2022-08-28T23:19:09.793Z,12.77
2022-08-28T23:21:43.948Z,12.20
2022-08-28T23:24:15.955Z,11.75
2022-08-28T23:26:43.615Z,10.68
2022-08-28T23:29:11.052Z,11.68
2022-08-28T23:31:38.450Z,9.80
2022-08-28T23:34:06.075Z,10.82
2022-08-28T23:36:35.400Z,11.00
2022-08-28T23:39:03.914Z,11.80
2022-08-28T23:41:32.077Z,11.48
2022-08-28T23:43:59.485Z,11.02
2022-08-28T23:46:26.755Z,11.25
2022-08-28T23:48:54.008Z,11.40
2022-08-28T23:51:21.973Z,12.20
2022-08-28T23:53:49.287Z,12.15
2022-08-28T23:56:17.279Z,11.50
2022-08-28T23:58:45.534Z,11.75
